Portada
METAR-TAF:

METAR-TAF

Aeropuertos :

Aeropuerto Internacional Rey Khalid

Riad, Arabia Saudita

latitud: 24-56N, longitud: 046-43E, altitud: 614 m

Observación

El informe se hizo hace 1 hora y 3 minutos, a las 15:00 UTC
Viento 6 kt del norte
Temperatura 21°C
Humedad 46%
Presión 1022 hPa
Visibilidad 10 km o más
sin nubes por debajo de 1500 m y sin presencia de cumulonimbus.

METAR: OERK 181500Z 01006KT CAVOK 21/09 Q1022 NOSIG

Hora: 19:03 (16:03 UTC)

Pronóstico

El informe se hizo hace 5 horas y 3 minutos, a las 11:00 UTC
Pronóstico válido del 18 a las 12 UTC al 19 a las 18 UTC
Viento 13 kt del oeste
Visibilidad: 8000 m
Escasas nubes a una altura de 4000 ft
Nubes dispersas a una altura de 10000 ft
Evolucionando progresivamente
del 18 a las 16 UTC al 18 a las 18 UTC
Viento 11 kt del sureste

TAF: OERK 181100Z 1812/1918 26013KT 8000 FEW040 SCT100 BECMG 1816/1818 14011KT

Observaciones y pronósticos meteorológicos de más de 4000 aeropuertos (mensajes METAR y TAF).

Los puntos amarillos y rojos representan las estaciones disponibles.

Ponga el ratón en el punto deseado para ver el nombre de la estación.

Haga clic para ver las observaciones y los pronósticos meteorológicos.

Para cambiar el mapa : haga clic en los botones verdes con una cruz de color negro para hacer un zoom, en el botón verde con un guión para alejar o en las flechas verdes para mapas adyacentes.


METAR-TAF: